ルクソール の空港の天気 - METARとTAF

ルクソール国際空港 ( HELX / LXR ) - エジプト ルクソール
飛行場実況気象(Metar)
観測時間07/22 20:00 EET (07/22 18:00 UTC)
風向・風速西 5m/s
視程10km以上
天気現象
なし
気温34℃
湿度30%
気圧1005hPa
METARHELX 221800Z 28010KT CAVOK 34/14 Q1005 NOSIG
過去の天気等 Google飛行場航空写真 Wunderground天気予報

過去48時間のMETAR

飛行場予報(TAF)
発表時間: 7/22 19:00 EET (7/22 17:00 UTC)
予報対象時間: 22日20時 EET ~ 24日2時 EET
風向・風速北西 4m/s
視程10km以上
なし
TAF HELX 221700Z 2218/2324 32007KT CAVOK